Terminal Aerodrome Forecast
Issued by NWS

Home | Current Version | Previous Version | Text Only | Print | Product List | Glossary Off
Versions: 1 2 3 4 5 6 7 8 9 10 11 12 13

164
FTUS43 KTOP 031719 AAB
TAFFOE
TAF AMD
KFOE 031719Z 0317/0412 31015G25KT P6SM SCT025
     FM040000 31007KT P6SM FEW100=

USA.gov is the U.S. government's official web portal to all federal, state and local government web resources and services.